Terminal Aerodrome Forecast
Issued by NWS

Home | Current Version | Previous Version | Text Only | Print | Product List | Glossary On
Versions: 1 2 3 4 5 6 7 8 9 10 11 12 13 14 15 16 17 18 19
000
FTUS42 KJAX 222300
TAFVQQ
TAF
KVQQ 222334Z 2300/2324 17003KT P6SM VCSH SCT030 BKN250
     FM230400 15003KT P6SM VCTS SCT030CB BKN120 OVC250
      TEMPO 2309/2312 4SM BR BKN025
     FM231400 06005KT P6SM VCSH SCT020 BKN040 BKN150
     FM231800 06007KT P6SM VCTS SCT030CB BKN150=

USA.gov is the U.S. government's official web portal to all federal, state and local government web resources and services.